Time;durP1;ratioP1;P1;durP2;ratioP2;P2;SDS_P1;SDS_P2;PMS_P1;PMS_P2;Temp;Humidity;BMP_temperature;BMP_pressure;BME280_temperature;BME280_humidity;BME280_pressure;Samples;Min_cycle;Max_cycle;Signal;HPM_P1;HPM_P2
2021/07/04 00:00:01;;;;;;;5.70;4.75;;;;;;;17.69;88.34;98455.59;1691827;84;21101;-64
2021/07/04 00:02:27;;;;;;;5.40;4.90;;;;;;;17.68;88.48;98457.88;1676936;84;21010;-65
2021/07/04 00:04:53;;;;;;;5.30;4.80;;;;;;;17.67;88.41;98456.69;1679445;84;21465;-65
2021/07/04 00:07:21;;;;;;;5.10;4.53;;;;;;;17.63;88.63;98458.71;1681568;84;20986;-65
2021/07/04 00:09:48;;;;;;;7.10;4.62;;;;;;;17.63;88.82;98452.62;1685042;84;21423;-65
2021/07/04 00:12:15;;;;;;;4.83;4.42;;;;;;;17.62;88.99;98458.36;1677718;84;21731;-65
2021/07/04 00:14:43;;;;;;;6.87;4.92;;;;;;;17.60;89.08;98457.66;1674066;84;21147;-65
2021/07/04 00:17:09;;;;;;;5.75;5.05;;;;;;;17.58;89.18;98462.24;1668126;84;21477;-65
2021/07/04 00:19:37;;;;;;;4.85;4.45;;;;;;;17.56;89.12;98462.37;1695198;84;20992;-64
2021/07/04 00:22:04;;;;;;;7.20;4.53;;;;;;;17.54;89.10;98450.31;1691894;84;21388;-64
2021/07/04 00:24:30;;;;;;;5.50;5.00;;;;;;;17.51;89.16;98445.31;1688042;84;21764;-64
2021/07/04 00:26:57;;;;;;;6.53;4.75;;;;;;;17.50;89.30;98448.91;1661810;84;21003;-65
2021/07/04 00:29:23;;;;;;;9.45;5.85;;;;;;;17.48;89.31;98445.09;1662656;84;21071;-65
2021/07/04 00:31:49;;;;;;;5.55;5.08;;;;;;;17.47;89.23;98447.38;1689323;84;21396;-65
2021/07/04 00:34:17;;;;;;;7.85;4.62;;;;;;;17.46;89.21;98446.19;1669822;84;21010;-65
2021/07/04 00:36:45;;;;;;;5.78;5.28;;;;;;;17.44;89.11;98445.00;1663058;84;21138;-64
2021/07/04 00:39:11;;;;;;;5.40;5.00;;;;;;;17.42;89.03;98440.84;1675339;84;21022;-65
2021/07/04 00:41:38;;;;;;;5.62;5.12;;;;;;;17.40;89.07;98437.02;1663936;84;20990;-65
2021/07/04 00:44:05;;;;;;;5.35;4.85;;;;;;;17.38;88.77;98432.89;1676055;84;21517;-65
2021/07/04 00:46:31;;;;;;;5.87;5.37;;;;;;;17.35;88.70;98425.27;1681609;84;20986;-65
2021/07/04 00:48:59;;;;;;;5.50;5.10;;;;;;;17.32;88.89;98422.89;1675255;84;21091;-65
2021/07/04 00:51:26;;;;;;;5.70;5.20;;;;;;;17.31;88.92;98435.20;1665708;84;20966;-65
2021/07/04 00:53:53;;;;;;;7.35;5.37;;;;;;;17.29;89.04;98429.72;1687870;84;21002;-64
2021/07/04 00:56:20;;;;;;;6.15;5.55;;;;;;;17.26;89.07;98435.23;1669026;84;21158;-64
2021/07/04 00:58:47;;;;;;;6.12;4.60;;;;;;;17.23;89.07;98428.44;1689811;84;21030;-64
2021/07/04 01:01:14;;;;;;;5.45;4.95;;;;;;;17.21;89.23;98432.98;1639679;84;21403;-64
2021/07/04 01:03:41;;;;;;;5.87;5.37;;;;;;;17.17;89.41;98435.07;1672186;84;21058;-65
2021/07/04 01:06:07;;;;;;;5.85;5.10;;;;;;;17.13;89.60;98434.97;1675549;84;21061;-65
2021/07/04 01:08:34;;;;;;;5.10;4.70;;;;;;;17.08;89.74;98431.06;1665882;84;21609;-65
2021/07/04 01:11:04;;;;;;;5.75;5.17;;;;;;;17.03;89.84;98423.55;1676232;84;21121;-65
2021/07/04 01:13:33;;;;;;;8.25;4.83;;;;;;;16.99;90.12;98420.00;1675058;84;21761;-65
2021/07/04 01:16:01;;;;;;;5.55;4.95;;;;;;;16.97;90.37;98429.83;1668723;84;21446;-64
2021/07/04 01:18:27;;;;;;;5.50;5.00;;;;;;;16.94;90.57;98428.29;1646009;84;21139;-64
2021/07/04 01:20:58;;;;;;;5.30;4.90;;;;;;;16.93;90.89;98425.79;1637263;84;21593;-64
2021/07/04 01:23:24;;;;;;;4.80;4.33;;;;;;;16.91;91.00;98421.98;1686951;84;21518;-64
2021/07/04 01:25:54;;;;;;;6.42;5.15;;;;;;;16.92;91.10;98417.55;1681860;84;21104;-64
2021/07/04 01:28:23;;;;;;;6.80;4.97;;;;;;;16.93;91.43;98420.05;1693720;84;21380;-64
2021/07/04 01:30:54;;;;;;;5.75;5.17;;;;;;;16.94;91.34;98422.20;1674620;84;21529;-64
2021/07/04 01:33:22;;;;;;;5.47;4.97;;;;;;;16.95;91.29;98419.45;1675210;84;21065;-64
2021/07/04 01:35:49;;;;;;;4.72;4.30;;;;;;;16.95;91.29;98416.83;1669233;84;21052;-64
2021/07/04 01:38:15;;;;;;;6.58;5.42;;;;;;;16.95;91.27;98415.98;1684232;84;21130;-64
2021/07/04 01:40:42;;;;;;;6.75;6.15;;;;;;;16.96;91.15;98420.28;1636722;85;21576;-64
2021/07/04 01:43:09;;;;;;;5.90;5.35;;;;;;;16.94;91.08;98423.03;1660037;84;21575;-64
2021/07/04 01:45:38;;;;;;;5.83;5.28;;;;;;;16.93;90.97;98429.73;1668908;85;20914;-64
2021/07/04 01:48:08;;;;;;;5.78;4.80;;;;;;;16.90;91.04;98427.35;1675841;84;20997;-65
2021/07/04 01:50:44;;;;;;;5.65;5.15;;;;;;;16.91;90.93;98435.59;1658608;84;21803;-65
2021/07/04 01:53:14;;;;;;;5.75;5.25;;;;;;;16.91;91.13;98436.90;1675856;84;26743;-65
2021/07/04 01:55:43;;;;;;;6.15;5.65;;;;;;;16.91;91.16;98433.80;1673751;84;21009;-65
2021/07/04 01:58:13;;;;;;;6.83;5.70;;;;;;;16.92;91.09;98434.62;1655509;86;20958;-65
2021/07/04 02:00:43;;;;;;;5.92;5.37;;;;;;;16.92;90.97;98439.40;1650328;86;20991;-65
2021/07/04 02:03:12;;;;;;;6.42;5.83;;;;;;;16.92;90.97;98439.40;1670525;84;21104;-65
2021/07/04 02:05:44;;;;;;;6.22;5.72;;;;;;;16.92;91.02;98440.72;1697913;84;21395;-65
2021/07/04 02:08:15;;;;;;;6.70;6.10;;;;;;;16.93;90.95;98441.07;1671137;84;21112;-65
2021/07/04 02:10:46;;;;;;;6.10;5.60;;;;;;;16.94;91.05;98437.96;1663207;85;20993;-65
2021/07/04 02:13:15;;;;;;;8.08;5.20;;;;;;;16.95;90.85;98437.84;1682541;84;20942;-65
2021/07/04 02:15:46;;;;;;;6.75;6.00;;;;;;;16.99;90.94;98439.22;1668045;84;21122;-65
2021/07/04 02:18:16;;;;;;;7.70;6.92;;;;;;;17.08;90.94;98438.94;1685277;84;21029;-65
2021/07/04 02:20:52;;;;;;;7.30;6.60;;;;;;;17.21;91.32;98445.64;1685844;84;20892;-65
2021/07/04 02:23:38;;;;;;;6.87;5.55;;;;;;;17.42;90.65;98448.24;1673422;84;21020;-65
2021/07/04 02:26:10;;;;;;;6.62;5.72;;;;;;;17.71;89.74;98454.98;1669667;84;21038;-65
2021/07/04 02:28:40;;;;;;;8.30;6.17;;;;;;;17.96;89.02;98458.11;1684347;84;21134;-65
2021/07/04 02:31:11;;;;;;;6.53;6.03;;;;;;;18.23;87.97;98456.48;1681898;84;21002;-65
2021/07/04 02:33:39;;;;;;;6.83;6.10;;;;;;;18.45;86.85;98448.83;1676705;84;20979;-65
2021/07/04 02:36:08;;;;;;;6.85;6.15;;;;;;;18.58;85.78;98455.95;1683594;84;20927;-65
2021/07/04 02:38:36;;;;;;;6.70;6.12;;;;;;;18.75;84.86;98456.29;1653629;85;21023;-65
2021/07/04 02:41:05;;;;;;;6.62;6.00;;;;;;;19.02;84.22;98447.16;1658444;84;21476;-65
2021/07/04 02:51:27;;;;;;;9.55;6.33;;;;;;;20.71;77.92;98437.52;1816505;79;22628;-64
2021/07/04 02:53:54;;;;;;;6.20;5.60;;;;;;;21.10;76.34;98438.48;1789616;80;20850;-65
2021/07/04 02:56:22;;;;;;;7.65;5.67;;;;;;;21.59;73.79;98444.90;1789610;80;22015;-65
2021/07/04 02:58:50;;;;;;;6.15;5.65;;;;;;;22.11;71.89;98444.33;1789328;80;20929;-65
2021/07/04 03:01:18;;;;;;;6.25;5.62;;;;;;;22.58;69.72;98455.16;1789448;80;20931;-65
2021/07/04 03:03:47;;;;;;;5.75;5.35;;;;;;;23.00;68.22;98466.14;1789499;80;20950;-66
2021/07/04 03:06:15;;;;;;;9.50;5.90;;;;;;;23.38;66.23;98472.59;1789420;80;20926;-66
2021/07/04 03:08:44;;;;;;;6.00;5.42;;;;;;;23.80;64.84;98466.17;1789518;80;20883;-66
2021/07/04 03:11:12;;;;;;;5.72;5.22;;;;;;;24.17;63.65;98469.03;1789332;80;20926;-65
2021/07/04 03:13:39;;;;;;;5.78;5.28;;;;;;;24.53;62.26;98475.98;1789577;80;21466;-65
2021/07/04 03:16:06;;;;;;;5.90;5.45;;;;;;;24.89;60.64;98477.55;1789351;80;20990;-65
2021/07/04 03:18:34;;;;;;;6.62;5.92;;;;;;;25.20;59.85;98480.12;1789699;80;21454;-65
2021/07/04 03:21:01;;;;;;;5.72;5.22;;;;;;;25.54;58.45;98482.81;1789586;80;21139;-66
2021/07/04 03:23:28;;;;;;;6.83;5.37;;;;;;;25.89;57.22;98487.94;1789511;80;21629;-66
2021/07/04 03:25:57;;;;;;;5.40;4.85;;;;;;;26.23;55.90;98488.66;1789395;80;20958;-66
2021/07/04 03:28:25;;;;;;;9.03;5.15;;;;;;;26.50;55.19;98478.66;1789016;80;20950;-65
2021/07/04 03:30:54;;;;;;;5.72;5.22;;;;;;;26.81;54.06;98491.69;1789549;80;20959;-65
2021/07/04 03:33:21;;;;;;;6.80;4.92;;;;;;;27.04;53.26;98498.19;1789422;80;23247;-65
2021/07/04 03:35:48;;;;;;;5.47;4.97;;;;;;;27.21;52.63;98498.23;1789322;80;20929;-65
2021/07/04 03:38:15;;;;;;;5.75;5.22;;;;;;;27.38;51.83;98502.27;1789455;80;20954;-65
2021/07/04 03:40:45;;;;;;;6.25;5.45;;;;;;;27.50;51.44;98507.09;1789374;80;20898;-65
2021/07/04 03:43:19;;;;;;;5.90;5.40;;;;;;;27.63;50.89;98497.85;1787882;80;21415;-65
2021/07/04 03:45:46;;;;;;;6.55;5.10;;;;;;;27.81;50.33;98496.83;1760679;81;21199;-65
2021/07/04 03:48:13;;;;;;;5.80;5.30;;;;;;;27.95;50.17;98496.41;1760651;81;21034;-65
2021/07/04 03:50:41;;;;;;;5.62;5.10;;;;;;;28.19;49.50;98498.55;1751260;80;21042;-65
2021/07/04 03:53:09;;;;;;;5.70;5.20;;;;;;;28.32;48.85;98489.30;1747471;82;21518;-65
2021/07/04 03:55:35;;;;;;;8.00;5.60;;;;;;;28.30;48.65;98490.52;1747562;81;20959;-65
2021/07/04 03:58:04;;;;;;;6.50;5.20;;;;;;;28.20;48.53;98495.40;1726820;82;21391;-65
2021/07/04 04:00:38;;;;;;;6.33;5.83;;;;;;;28.03;48.66;98495.72;1746267;82;20851;-65
2021/07/04 04:03:12;;;;;;;6.35;5.62;;;;;;;27.75;48.84;98496.30;1746752;82;21467;-65
2021/07/04 04:05:41;;;;;;;5.83;5.33;;;;;;;27.46;49.62;98494.63;1746703;82;21462;-65
2021/07/04 04:08:09;;;;;;;6.55;5.62;;;;;;;27.36;50.00;98494.16;1747062;82;21073;-65
2021/07/04 04:10:40;;;;;;;5.95;5.45;;;;;;;27.30;50.07;98486.91;1746910;80;21005;-65
2021/07/04 04:13:09;;;;;;;6.55;5.95;;;;;;;27.22;50.36;98485.20;1746644;82;21040;-65
2021/07/04 04:15:37;;;;;;;8.30;5.70;;;;;;;27.12;50.42;98487.39;1746934;81;20915;-65
2021/07/04 04:18:03;;;;;;;6.28;5.70;;;;;;;27.02;51.00;98482.37;1746937;82;20999;-65
2021/07/04 04:20:31;;;;;;;6.30;5.70;;;;;;;26.91;51.14;98485.53;1746908;82;20986;-65
2021/07/04 04:22:58;;;;;;;6.42;5.67;;;;;;;26.78;51.76;98486.72;1746991;80;23305;-65
2021/07/04 04:25:24;;;;;;;6.55;5.30;;;;;;;26.64;51.95;98481.78;1746858;82;21407;-65
2021/07/04 04:27:52;;;;;;;6.08;5.58;;;;;;;26.43;52.39;98478.58;1746919;82;21033;-65
2021/07/04 04:30:19;;;;;;;7.35;6.15;;;;;;;26.27;53.10;98477.95;1747076;82;21498;-65
2021/07/04 04:32:49;;;;;;;31.93;28.75;;;;;;;26.29;53.31;98471.45;1747069;81;21439;-65
2021/07/04 04:35:15;;;;;;;9.25;7.65;;;;;;;26.32;53.30;98468.92;1747003;82;21169;-65
2021/07/04 04:37:42;;;;;;;6.67;6.08;;;;;;;26.27;53.16;98472.62;1747062;82;20974;-64
2021/07/04 04:40:12;;;;;;;6.90;6.20;;;;;;;26.17;53.46;98473.44;1747012;82;20970;-64
2021/07/04 04:42:39;;;;;;;7.15;6.45;;;;;;;26.03;53.91;98474.59;1747057;82;20938;-65
2021/07/04 04:45:07;;;;;;;6.55;5.95;;;;;;;26.02;54.36;98471.61;1746933;82;20995;-65
2021/07/04 04:47:35;;;;;;;6.92;6.33;;;;;;;26.08;54.36;98470.88;1747090;82;21773;-65
2021/07/04 04:50:04;;;;;;;7.90;6.40;;;;;;;26.17;53.94;98476.94;1747128;80;21533;-65
2021/07/04 04:52:31;;;;;;;6.28;5.65;;;;;;;26.19;54.27;98461.55;1749695;81;21039;-65
2021/07/04 04:54:58;;;;;;;5.97;5.47;;;;;;;26.36;54.05;98466.21;1749571;82;20958;-65
2021/07/04 04:57:24;;;;;;;5.65;5.12;;;;;;;26.54;53.29;98474.61;1749593;82;20982;-65
2021/07/04 04:59:51;;;;;;;6.12;5.62;;;;;;;26.63;53.13;98474.79;1749689;82;21817;-65
2021/07/04 05:02:17;;;;;;;6.12;5.50;;;;;;;26.68;53.21;98472.89;1749479;82;20903;-65
2021/07/04 05:04:44;;;;;;;7.67;6.08;;;;;;;26.80;52.89;98474.02;1749645;82;20982;-65
2021/07/04 05:07:12;;;;;;;6.87;6.28;;;;;;;26.89;52.91;98484.07;1749638;82;20969;-65
2021/07/04 05:09:38;;;;;;;6.80;6.15;;;;;;;27.07;52.79;98478.63;1749559;82;20959;-65
2021/07/04 05:12:06;;;;;;;6.65;6.08;;;;;;;27.36;52.40;98479.47;1749649;82;21146;-65
2021/07/04 05:14:33;;;;;;;6.28;5.78;;;;;;;27.70;51.86;98476.02;1749471;82;20986;-65
2021/07/04 05:17:00;;;;;;;6.15;5.72;;;;;;;28.08;50.95;98481.76;1749583;82;21101;-65
2021/07/04 05:19:26;;;;;;;6.20;5.60;;;;;;;28.36;49.99;98477.69;1749551;82;20991;-65
2021/07/04 05:21:52;;;;;;;5.58;5.15;;;;;;;28.56;49.31;98484.44;1749718;82;21045;-65
2021/07/04 05:24:19;;;;;;;10.00;5.62;;;;;;;28.67;48.67;98486.50;1749625;82;21135;-65
2021/07/04 05:26:46;;;;;;;6.87;6.20;;;;;;;28.68;49.09;98490.31;1749752;82;21387;-65
2021/07/04 05:29:12;;;;;;;6.03;5.35;;;;;;;28.96;48.42;98492.05;1749489;82;20990;-65
2021/07/04 05:31:39;;;;;;;7.17;6.55;;;;;;;29.29;47.67;98490.70;1749574;80;20974;-65
2021/07/04 05:34:05;;;;;;;7.37;6.67;;;;;;;29.54;46.62;98491.75;1749983;82;20935;-65
2021/07/04 05:36:34;;;;;;;6.92;6.42;;;;;;;29.67;46.20;98490.89;1749623;82;20926;-65
2021/07/04 05:39:00;;;;;;;5.90;5.40;;;;;;;29.80;45.78;98501.57;1749654;82;21525;-65
2021/07/04 05:41:27;;;;;;;6.90;6.00;;;;;;;29.95;45.45;98502.17;1749798;82;20943;-65
2021/07/04 05:43:53;;;;;;;9.80;6.55;;;;;;;30.20;44.92;98504.16;1749642;82;21046;-65
2021/07/04 05:46:19;;;;;;;6.65;6.05;;;;;;;30.44;44.78;98502.09;1749623;82;20947;-65
2021/07/04 05:48:46;;;;;;;8.85;6.25;;;;;;;30.67;44.27;98502.41;1749549;82;23306;-65
2021/07/04 05:51:13;;;;;;;9.28;6.60;;;;;;;30.68;43.82;98502.72;1748008;80;21526;-66
2021/07/04 05:53:39;;;;;;;11.83;6.58;;;;;;;30.52;44.18;98507.74;1746833;82;21022;-65
2021/07/04 05:56:06;;;;;;;8.35;7.40;;;;;;;30.26;44.47;98501.45;1746901;82;20943;-65
2021/07/04 05:58:32;;;;;;;6.40;5.80;;;;;;;30.11;44.81;98508.44;1746948;82;20975;-65
2021/07/04 06:00:58;;;;;;;8.18;6.03;;;;;;;29.99;44.90;98503.92;1747149;82;21898;-65
2021/07/04 06:03:25;;;;;;;6.67;6.08;;;;;;;29.87;45.41;98494.86;1746892;82;20927;-65
2021/07/04 06:05:51;;;;;;;6.22;5.60;;;;;;;29.74;45.92;98498.41;1746899;82;21034;-65
2021/07/04 06:08:18;;;;;;;6.85;6.15;;;;;;;29.66;45.48;98499.45;1746911;82;20931;-65
2021/07/04 06:10:45;;;;;;;7.12;5.42;;;;;;;29.42;46.06;98492.87;1746819;82;20984;-65
2021/07/04 06:13:13;;;;;;;7.25;6.53;;;;;;;29.25;46.75;98492.14;1746858;82;21519;-65
2021/07/04 06:15:40;;;;;;;6.55;6.00;;;;;;;29.07;47.34;98498.94;1746930;82;20962;-65
2021/07/04 06:18:06;;;;;;;7.67;5.92;;;;;;;28.93;47.92;98491.11;1746943;82;20918;-65
2021/07/04 06:20:33;;;;;;;7.75;5.87;;;;;;;28.86;47.56;98495.62;1746913;82;21058;-65
2021/07/04 06:22:59;;;;;;;6.05;5.55;;;;;;;28.71;47.89;98491.77;1746910;82;21014;-65
2021/07/04 06:25:25;;;;;;;6.08;5.50;;;;;;;28.59;47.95;98497.38;1746861;82;21069;-65
2021/07/04 06:27:52;;;;;;;6.08;5.58;;;;;;;28.45;48.56;98490.66;1746840;82;20997;-65
2021/07/04 06:30:18;;;;;;;5.97;5.58;;;;;;;28.37;49.05;98488.19;1746841;82;20990;-65
2021/07/04 06:32:45;;;;;;;6.03;5.53;;;;;;;28.30;49.05;98489.19;1746925;82;20987;-65
2021/07/04 06:35:12;;;;;;;6.17;5.58;;;;;;;28.20;49.18;98488.20;1746859;82;21529;-65
2021/07/04 06:37:38;;;;;;;8.23;7.05;;;;;;;27.99;49.83;98485.61;1746920;82;21142;-65
2021/07/04 06:40:06;;;;;;;6.05;5.58;;;;;;;28.02;50.65;98482.03;1746799;80;20942;-65
2021/07/04 06:42:33;;;;;;;7.17;5.45;;;;;;;28.26;50.38;98483.41;1747065;82;21529;-65
2021/07/04 06:44:59;;;;;;;6.53;5.53;;;;;;;28.39;49.87;98474.08;1746747;82;21481;-65
2021/07/04 06:47:26;;;;;;;5.65;5.25;;;;;;;28.36;49.07;98469.16;1746916;82;20955;-65
2021/07/04 06:49:52;;;;;;;6.05;5.55;;;;;;;28.18;49.25;98480.86;1746766;82;23293;-65
2021/07/04 06:52:20;;;;;;;6.20;5.58;;;;;;;27.91;49.41;98467.91;1746615;80;21018;-66
2021/07/04 06:54:47;;;;;;;7.20;4.85;;;;;;;27.63;50.31;98468.47;1746755;82;21048;-66
2021/07/04 06:57:28;;;;;;;5.28;4.87;;;;;;;27.41;50.89;98476.52;1747217;82;20959;-65
2021/07/04 07:00:00;;;;;;;5.85;5.35;;;;;;;27.27;50.94;98469.44;1747079;82;21423;-65
2021/07/04 07:02:27;;;;;;;5.30;4.90;;;;;;;27.19;51.15;98471.41;1746804;82;21139;-65
2021/07/04 07:04:53;;;;;;;11.15;5.40;;;;;;;27.22;51.60;98474.52;1746758;82;21487;-65
2021/07/04 07:07:21;;;;;;;5.35;4.95;;;;;;;27.31;52.05;98474.70;1746750;82;21042;-65
2021/07/04 07:09:49;;;;;;;6.25;5.20;;;;;;;27.38;51.72;98474.73;1746855;80;20946;-65
2021/07/04 07:12:15;;;;;;;5.12;4.72;;;;;;;27.40;51.02;98473.52;1746972;82;20994;-65
2021/07/04 07:14:42;;;;;;;4.95;4.55;;;;;;;27.38;50.55;98488.09;1746956;82;21932;-65
2021/07/04 07:17:08;;;;;;;5.03;4.62;;;;;;;27.37;49.95;98476.61;1746868;82;20935;-65
2021/07/04 07:19:37;;;;;;;7.97;7.33;;;;;;;27.37;50.01;98481.12;1746737;81;20951;-66
2021/07/04 07:22:05;;;;;;;6.85;6.25;;;;;;;27.27;50.72;98472.11;1746755;82;21056;-66
2021/07/04 07:24:35;;;;;;;7.45;6.70;;;;;;;27.19;50.46;98476.24;1746792;82;20990;-66
2021/07/04 07:27:01;;;;;;;7.53;5.53;;;;;;;27.05;50.79;98467.31;1747031;82;21902;-66
2021/07/04 07:29:28;;;;;;;5.40;4.90;;;;;;;26.99;51.32;98471.25;1746701;82;20943;-66
2021/07/04 07:31:54;;;;;;;7.45;4.05;;;;;;;26.98;51.20;98460.25;1746817;81;20967;-66
2021/07/04 07:34:21;;;;;;;4.15;3.83;;;;;;;26.94;50.36;98472.33;1746708;82;21784;-66
2021/07/04 07:36:47;;;;;;;4.08;3.72;;;;;;;26.87;49.68;98472.77;1746857;82;20995;-65
2021/07/04 07:39:14;;;;;;;6.53;3.75;;;;;;;26.78;49.73;98471.55;1746998;82;21206;-65
2021/07/04 07:41:42;;;;;;;5.75;4.00;;;;;;;26.73;49.89;98473.16;1746971;82;21026;-66
2021/07/04 07:44:09;;;;;;;4.47;3.65;;;;;;;26.73;50.18;98473.16;1746878;80;21415;-65
2021/07/04 07:46:35;;;;;;;5.45;3.95;;;;;;;26.72;49.48;98466.17;1747273;82;20990;-66
2021/07/04 07:49:02;;;;;;;3.83;3.58;;;;;;;26.68;49.82;98462.22;1746914;82;21062;-66
2021/07/04 07:51:33;;;;;;;3.40;3.08;;;;;;;26.68;49.73;98467.55;1746487;80;21511;-66
2021/07/04 07:53:59;;;;;;;4.00;3.40;;;;;;;26.69;49.47;98461.21;1749500;82;21034;-66
2021/07/04 07:56:26;;;;;;;4.75;3.77;;;;;;;26.75;49.40;98464.45;1749829;82;21395;-66
2021/07/04 07:58:53;;;;;;;3.95;3.60;;;;;;;26.76;49.16;98464.78;1749730;82;21045;-66
2021/07/04 08:01:21;;;;;;;4.62;3.95;;;;;;;26.80;49.42;98464.69;1749544;82;21477;-65
2021/07/04 08:03:48;;;;;;;4.30;3.90;;;;;;;26.88;49.79;98459.23;1749544;82;21127;-65
2021/07/04 08:06:16;;;;;;;7.95;3.98;;;;;;;26.95;49.71;98460.16;1749495;82;20951;-64
2021/07/04 08:08:43;;;;;;;4.58;3.40;;;;;;;27.11;49.67;98468.39;1749618;82;21034;-66
2021/07/04 08:11:10;;;;;;;4.90;3.85;;;;;;;27.29;49.38;98471.91;1749531;82;21066;-66
2021/07/04 08:13:37;;;;;;;3.87;3.58;;;;;;;27.33;49.61;98475.85;1749619;82;21350;-65
2021/07/04 08:16:05;;;;;;;7.58;3.98;;;;;;;27.32;49.09;98476.87;1749674;82;21216;-65
2021/07/04 08:18:32;;;;;;;6.60;3.42;;;;;;;27.33;48.72;98482.02;1749460;82;21018;-65
2021/07/04 08:20:58;;;;;;;3.22;3.00;;;;;;;27.40;48.18;98487.38;1749680;82;20934;-66
2021/07/04 08:23:24;;;;;;;4.17;3.40;;;;;;;27.55;48.09;98488.64;1749751;82;20943;-66
2021/07/04 08:25:51;;;;;;;6.83;4.25;;;;;;;27.74;47.71;98483.45;1749782;82;20962;-65
2021/07/04 08:28:18;;;;;;;5.87;3.40;;;;;;;27.97;47.15;98477.00;1749494;82;21475;-65
2021/07/04 08:30:47;;;;;;;3.92;3.62;;;;;;;28.07;46.50;98476.92;1749528;80;21019;-65
2021/07/04 08:33:14;;;;;;;11.70;8.45;;;;;;;28.19;46.34;98481.17;1749750;82;20991;-66
2021/07/04 08:35:40;;;;;;;5.53;5.12;;;;;;;28.29;45.88;98479.00;1749766;82;21506;-66
2021/07/04 08:38:07;;;;;;;4.80;4.15;;;;;;;28.31;45.88;98476.95;1749851;82;21007;-66
2021/07/04 08:40:34;;;;;;;6.67;4.58;;;;;;;28.34;45.91;98480.56;1749992;82;21769;-66
2021/07/04 08:43:00;;;;;;;3.87;3.27;;;;;;;28.43;45.13;98471.83;1749593;82;20986;-65
2021/07/04 08:45:27;;;;;;;3.50;2.80;;;;;;;28.44;44.59;98474.81;1749540;82;21093;-66
2021/07/04 08:47:54;;;;;;;3.35;2.90;;;;;;;28.40;43.86;98481.59;1749569;82;20998;-65
2021/07/04 08:50:22;;;;;;;4.45;2.92;;;;;;;28.30;43.23;98474.47;1749485;82;21042;-65
2021/07/04 08:52:48;;;;;;;3.30;3.00;;;;;;;28.29;43.44;98478.17;1747352;81;21195;-65
2021/07/04 08:55:16;;;;;;;2.40;2.20;;;;;;;28.32;43.30;98466.56;1746870;82;20955;-65
2021/07/04 08:57:44;;;;;;;3.62;2.90;;;;;;;28.38;43.65;98467.08;1746819;82;20986;-65
2021/07/04 09:00:17;;;;;;;2.60;2.40;;;;;;;28.45;42.99;98475.13;1746832;82;21000;-66
2021/07/04 09:02:45;;;;;;;5.03;4.53;;;;;;;28.39;41.61;98474.08;1746985;82;20982;-66
2021/07/04 09:05:12;;;;;;;5.15;3.12;;;;;;;28.26;42.37;98478.56;1746916;82;21063;-67
2021/07/04 09:07:42;;;;;;;3.00;2.80;;;;;;;28.23;42.08;98478.45;1746879;82;21143;-65
2021/07/04 09:10:20;;;;;;;3.25;2.90;;;;;;;28.23;42.42;98478.96;1746890;82;21487;-65
2021/07/04 09:12:50;;;;;;;3.70;2.60;;;;;;;28.28;42.84;98474.67;1747207;82;20947;-66
2021/07/04 09:15:26;;;;;;;4.08;2.85;;;;;;;28.41;42.87;98474.70;1747008;82;20962;-66
2021/07/04 09:17:59;;;;;;;2.72;2.52;;;;;;;28.54;42.42;98471.26;1747015;82;21486;-65
2021/07/04 09:20:34;;;;;;;2.47;2.33;;;;;;;28.68;42.24;98474.27;1746800;82;20954;-65
2021/07/04 09:23:01;;;;;;;3.37;2.80;;;;;;;28.76;42.15;98467.39;1746968;82;21007;-65
2021/07/04 09:25:33;;;;;;;3.83;3.10;;;;;;;28.84;42.52;98466.89;1746948;81;20955;-66
2021/07/04 09:28:11;;;;;;;3.30;3.10;;;;;;;28.86;42.65;98458.16;1746999;81;21077;-66
2021/07/04 09:30:43;;;;;;;3.45;2.90;;;;;;;28.87;42.93;98459.80;1746828;82;21077;-66
2021/07/04 09:33:22;;;;;;;4.63;3.30;;;;;;;28.83;42.33;98454.03;1747133;82;21383;-66
2021/07/04 09:36:00;;;;;;;3.45;2.90;;;;;;;28.80;42.68;98461.95;1745875;82;21650;-65
2021/07/04 09:38:40;;;;;;;3.85;3.22;;;;;;;28.83;42.13;98461.23;1746956;82;21719;-66
2021/07/04 09:41:09;;;;;;;2.98;2.67;;;;;;;28.84;42.22;98460.20;1746258;82;20971;-65
2021/07/04 09:43:36;;;;;;;2.60;2.40;;;;;;;28.89;42.07;98445.19;1746787;82;22007;-65
2021/07/04 09:46:08;;;;;;;4.12;2.95;;;;;;;28.97;41.86;98446.34;1746762;82;21493;-64
2021/07/04 09:48:48;;;;;;;2.90;2.70;;;;;;;29.04;41.88;98445.80;1746836;82;20963;-66
2021/07/04 09:51:23;;;;;;;2.30;2.10;;;;;;;29.14;41.05;98454.77;1747149;81;20955;-66
2021/07/04 09:53:56;;;;;;;2.40;2.20;;;;;;;29.24;40.67;98443.63;1765487;81;20923;-65
2021/07/04 09:56:29;;;;;;;8.98;2.92;;;;;;;29.38;40.20;98446.07;1765528;81;21137;-66
2021/07/04 09:59:02;;;;;;;2.77;2.60;;;;;;;29.45;39.36;98447.44;1765330;81;21448;-65
2021/07/04 10:01:43;;;;;;;;;;;;;;;29.50;39.77;98440.95;1768139;81;21408;-66
2021/07/04 10:04:26;;;;;;;;;;;;;;;29.62;40.20;98435.23;1767961;81;20130;-67
2021/07/04 10:06:53;;;;;;;3.30;2.98;;;;;;;29.79;39.93;98439.09;1765397;81;20133;-65
2021/07/04 10:09:21;;;;;;;2.55;2.35;;;;;;;29.83;39.98;98440.33;1765344;81;21298;-66
2021/07/04 10:11:48;;;;;;;4.87;2.90;;;;;;;29.88;39.11;98437.53;1765616;81;21470;-66
2021/07/04 10:14:16;;;;;;;2.98;2.70;;;;;;;29.96;39.18;98438.13;1765305;81;20923;-65
2021/07/04 10:16:45;;;;;;;3.20;2.45;;;;;;;30.06;38.78;98433.16;1737947;81;21048;-65
2021/07/04 10:19:20;;;;;;;2.92;2.60;;;;;;;30.09;39.22;98438.09;1765451;81;21034;-66
2021/07/04 10:21:52;;;;;;;4.35;2.75;;;;;;;30.11;40.23;98430.67;1765784;81;21790;-66
2021/07/04 10:24:18;;;;;;;5.83;2.70;;;;;;;30.01;40.35;98436.16;1765257;81;20968;-65
2021/07/04 10:26:45;;;;;;;4.65;2.85;;;;;;;29.77;40.17;98431.81;1765302;81;20983;-66
2021/07/04 10:29:11;;;;;;;3.60;3.10;;;;;;;29.53;40.27;98423.64;1765305;81;21007;-66
2021/07/04 10:31:38;;;;;;;3.02;2.75;;;;;;;29.36;40.72;98424.05;1765315;81;20967;-66
2021/07/04 10:34:07;;;;;;;4.00;3.02;;;;;;;29.25;40.65;98426.53;1765603;81;21884;-66
2021/07/04 10:36:57;;;;;;;4.08;2.67;;;;;;;29.21;40.98;98416.74;1765443;81;20988;-65
2021/07/04 10:39:27;;;;;;;3.15;2.85;;;;;;;29.31;40.43;98419.84;1765298;81;21463;-66
2021/07/04 10:41:58;;;;;;;3.17;2.87;;;;;;;29.47;39.95;98418.08;1765123;81;20983;-67
2021/07/04 10:44:47;;;;;;;3.17;2.87;;;;;;;29.59;40.15;98415.55;1765585;81;20959;-66
2021/07/04 10:47:26;;;;;;;2.37;2.27;;;;;;;29.77;40.36;98417.59;1765325;81;22380;-65
2021/07/04 10:49:57;;;;;;;2.80;2.60;;;;;;;29.98;40.08;98415.96;1765252;81;20999;-65
2021/07/04 10:52:35;;;;;;;3.50;3.17;;;;;;;30.02;40.10;98423.06;1758935;81;21014;-64
2021/07/04 10:55:08;;;;;;;2.47;2.25;;;;;;;30.04;40.31;98422.34;1746799;82;21483;-66
2021/07/04 10:57:56;;;;;;;3.30;2.42;;;;;;;30.01;40.04;98414.20;1746595;82;20935;-66
2021/07/04 11:00:33;;;;;;;4.50;2.72;;;;;;;30.01;40.03;98418.22;1746893;82;21130;-66
2021/07/04 11:03:04;;;;;;;2.92;2.60;;;;;;;29.98;39.68;98411.94;1747217;82;20955;-66
2021/07/04 11:05:38;;;;;;;8.43;3.10;;;;;;;30.04;39.62;98404.91;1747070;82;21046;-65
2021/07/04 11:08:13;;;;;;;2.50;2.40;;;;;;;30.11;39.68;98407.87;1746904;82;20902;-66
2021/07/04 11:10:59;;;;;;;5.70;3.00;;;;;;;30.21;38.92;98406.05;1746956;82;21365;-67
2021/07/04 11:13:41;;;;;;;3.98;2.10;;;;;;;30.37;38.68;98406.09;1747388;82;21066;-66
2021/07/04 11:16:16;;;;;;;2.72;2.52;;;;;;;30.53;38.67;98408.24;1746997;82;20954;-65
2021/07/04 11:18:56;;;;;;;3.17;2.50;;;;;;;30.59;37.88;98410.07;1746976;82;20994;-65
2021/07/04 11:21:44;;;;;;;3.08;2.60;;;;;;;30.53;37.75;98407.42;1746968;82;20979;-66
2021/07/04 11:24:17;;;;;;;2.40;2.20;;;;;;;30.48;37.91;98404.86;1747003;82;21006;-64
2021/07/04 11:27:04;;;;;;;3.72;2.12;;;;;;;30.44;37.94;98400.96;1746972;82;21166;-64
2021/07/04 11:29:32;;;;;;;2.30;2.20;;;;;;;30.39;38.27;98402.13;1750011;81;20982;-64
2021/07/04 11:32:23;;;;;;;2.58;2.37;;;;;;;30.45;37.96;98400.44;1746912;82;21105;-65
2021/07/04 11:34:49;;;;;;;2.72;2.50;;;;;;;30.52;38.18;98398.55;1747083;81;20963;-65
2021/07/04 11:37:16;;;;;;;2.65;2.50;;;;;;;30.61;37.92;98396.44;1746936;82;20943;-65
2021/07/04 11:39:57;;;;;;;2.50;2.33;;;;;;;30.62;37.69;98394.88;1747083;82;21802;-66
2021/07/04 11:42:25;;;;;;;2.42;2.22;;;;;;;30.61;37.68;98399.13;1747081;82;21581;-64
2021/07/04 11:44:53;;;;;;;4.92;3.00;;;;;;;30.55;38.23;98402.17;1746898;82;21050;-65
2021/07/04 11:47:20;;;;;;;4.12;2.70;;;;;;;30.49;38.66;98396.30;1746929;82;21774;-66
2021/07/04 11:49:46;;;;;;;4.28;2.52;;;;;;;30.44;38.55;98396.11;1747198;82;21088;-65